Rizokarpason, Cyprus
Current Conditions -  °F | °C
As of 6:50 AM on Tuesday 21 Oct 2014 (Local Time) from LCEN Reporting Station
Clear Clear  
Wind Chill: 45°   Ceiling: Unl
Heat Index: 48°   Visibility: 6mi
Dew Point: 39°   Wind: 7mph
Humidity: 71%   Direction: 250°WSW
Pressure: 29.94"   Gusts: NA
Location:  35.58°N, 34.4°E
Report Text: LCEN 210350Z 25006KT CAVOK 09/04 Q1014 NOSIG
Loading
Personal Weather Stations






























Interactive Weather Map
Tropical Storm Tracking
New forecast layout! Learn more

10-Day Weather Forecast

Advertisements
Track Severe Weather on mobile